Terminal Aerodrome Forecast
Issued by NWS

Home | Current Version | Previous Version | Text Only | Print | Product List | Glossary On
Versions: 1 2 3 4 5 6 7 8 9 10 11 12 13 14 15 16 17 18 19 20 21 22
000
FTUS41 KPBZ 202100 AAC
TAFZZV
TAF AMD
KZZV 202105Z 2021/2118 25010KT P6SM BKN060
      TEMPO 2021/2022 6SM -RA
     FM210100 23004KT P6SM SCT040
     FM210600 VRB03KT 4SM BR SCT040=

USA.gov is the U.S. government's official web portal to all federal, state and local government web resources and services.